EmailTwitter


Observations de surface / Royaume-Uni / EGLL (03772)

Régions: Québec | Canada | États-Unis | Europe | France | UK | Ailleurs
Station
Affichage
Infos & localisation pour EGLL (03772) | Aide pour décoder les METARs

Observations prises le 2020-03-31 à 13H20 UTC à LONDON/HEATHROW, UK (EGLL)

Etat du ciel: partiellement nuageux.

Température: 11.0 Celsius

Point de rosée: 0.0 Celsius

Humidité relative: 47%

Facteur vent: 9.

Vents: Nord-est à 17 km/h ou 9 noeuds.

Pression au niveau moyen de la mer: 103.10 kilopascals.

Visibilité horizontale: 6.21 milles terrestres ou 9.94 kilomètres.

Hauteur du plafond: 1402 mètres ( 4600 pieds ).

Observation METAR:

EGLL 311320Z AUTO 06009KT 9999 BKN046 11/M00 Q1031 NOSIG=